createdAt,value
2022-12-01T00:00:56.467Z,85.90
2022-12-01T00:03:58.897Z,85.54
2022-12-01T00:07:05.888Z,85.42
2022-12-01T00:10:26.322Z,84.46
2022-12-01T00:13:28.946Z,84.88
2022-12-01T00:16:31.896Z,85.69
2022-12-01T00:19:34.397Z,86.32
2022-12-01T00:22:36.791Z,85.66
2022-12-01T00:25:39.154Z,85.44
2022-12-01T00:28:42.122Z,84.89
2022-12-01T00:31:44.612Z,84.96
2022-12-01T00:34:47.052Z,84.50
2022-12-01T00:37:49.490Z,85.13
2022-12-01T00:40:53.275Z,85.33
2022-12-01T00:43:55.727Z,85.13
2022-12-01T00:46:58.107Z,86.07
2022-12-01T00:50:00.507Z,85.78
2022-12-01T00:53:03.024Z,86.50
2022-12-01T00:56:05.596Z,86.05
2022-12-01T00:59:07.956Z,86.24
2022-12-01T01:02:10.763Z,85.36
2022-12-01T01:05:13.325Z,86.22
2022-12-01T01:08:15.704Z,86.46
2022-12-01T01:11:18.203Z,86.38
2022-12-01T01:14:24.169Z,85.22
2022-12-01T01:17:26.691Z,85.61
2022-12-01T01:20:29.408Z,85.17
2022-12-01T01:23:31.891Z,85.20
2022-12-01T01:26:35.527Z,84.94
2022-12-01T01:29:38.193Z,85.04
2022-12-01T01:32:40.625Z,84.88
2022-12-01T01:35:43.106Z,84.21
2022-12-01T01:38:46.611Z,84.22
2022-12-01T01:41:49.090Z,83.87
2022-12-01T01:44:57.141Z,84.03
2022-12-01T01:48:00.516Z,84.05
2022-12-01T01:51:03.757Z,83.48
2022-12-01T01:54:15.707Z,83.84
2022-12-01T01:57:30.144Z,84.34
2022-12-01T02:00:36.400Z,84.65
2022-12-01T02:03:41.007Z,85.23
2022-12-01T02:06:43.755Z,84.64
2022-12-01T02:09:46.761Z,85.01
2022-12-01T02:13:10.915Z,85.24
2022-12-01T02:16:32.537Z,84.61
2022-12-01T02:20:07.903Z,84.80
2022-12-01T02:23:35.185Z,84.73
2022-12-01T02:26:52.500Z,85.22
2022-12-01T02:30:09.153Z,85.93
2022-12-01T02:33:14.316Z,86.27
2022-12-01T02:36:22.258Z,85.85
2022-12-01T02:39:44.746Z,85.77
2022-12-01T02:43:02.554Z,85.20
2022-12-01T02:46:18.329Z,86.04
2022-12-01T02:49:25.995Z,86.09
2022-12-01T02:52:28.984Z,85.39
2022-12-01T02:55:31.429Z,85.73
2022-12-01T02:58:34.047Z,84.51
2022-12-01T03:01:59.127Z,84.79
2022-12-01T03:05:10.042Z,85.05
2022-12-01T03:08:46.153Z,84.52
2022-12-01T03:12:28.300Z,84.65
2022-12-01T03:15:43.404Z,84.68
2022-12-01T03:18:53.508Z,84.72
2022-12-01T03:22:23.183Z,84.85
2022-12-01T03:25:28.525Z,84.99
2022-12-01T03:28:38.115Z,85.62
2022-12-01T03:31:48.737Z,85.76
2022-12-01T03:35:00.219Z,85.60
2022-12-01T03:38:08.267Z,85.45
2022-12-01T03:41:18.059Z,85.73
2022-12-01T03:44:29.651Z,85.31
2022-12-01T03:47:32.920Z,85.29
2022-12-01T03:51:08.519Z,84.47
2022-12-01T03:54:29.519Z,85.16
2022-12-01T03:57:36.243Z,85.69
2022-12-01T04:00:40.160Z,85.63
2022-12-01T04:03:45.342Z,86.15
2022-12-01T04:06:51.007Z,86.16
2022-12-01T04:09:53.490Z,85.24
2022-12-01T04:12:59.540Z,86.09
2022-12-01T04:16:01.997Z,87.17
2022-12-01T04:19:07.801Z,86.85
2022-12-01T04:22:10.345Z,86.83
2022-12-01T04:25:12.879Z,85.31
2022-12-01T04:28:15.316Z,86.18
2022-12-01T04:31:18.000Z,86.16
2022-12-01T04:34:20.603Z,87.12
2022-12-01T04:37:23.083Z,86.92
2022-12-01T04:40:25.487Z,85.99
2022-12-01T04:43:27.901Z,86.15
2022-12-01T04:46:30.455Z,85.08
2022-12-01T04:49:33.740Z,86.20
2022-12-01T04:52:37.512Z,85.60
2022-12-01T04:55:40.033Z,86.41
2022-12-01T04:58:42.477Z,86.11
2022-12-01T05:01:47.024Z,85.37
2022-12-01T05:04:49.616Z,85.31
2022-12-01T05:07:52.446Z,85.42
2022-12-01T05:10:56.494Z,85.60
2022-12-01T05:13:59.803Z,85.66
2022-12-01T05:17:02.522Z,85.26
2022-12-01T05:20:31.565Z,85.23
2022-12-01T05:23:37.166Z,85.42
2022-12-01T05:26:40.171Z,85.68
2022-12-01T05:29:42.836Z,85.08
2022-12-01T05:32:45.531Z,86.11
2022-12-01T05:35:48.912Z,85.30
2022-12-01T05:38:51.629Z,85.75
2022-12-01T05:41:54.521Z,85.19
2022-12-01T05:44:56.925Z,85.52
2022-12-01T05:48:00.842Z,84.84
2022-12-01T05:51:16.573Z,85.18
2022-12-01T05:54:19.196Z,85.41
2022-12-01T05:57:21.592Z,85.46
2022-12-01T06:00:24.221Z,84.94
2022-12-01T06:03:26.869Z,86.07
2022-12-01T06:06:29.346Z,85.99
2022-12-01T06:09:32.101Z,85.62
2022-12-01T06:12:34.734Z,85.55
2022-12-01T06:15:37.466Z,86.03
2022-12-01T06:18:40.636Z,85.89
2022-12-01T06:21:43.271Z,86.06
2022-12-01T06:24:45.710Z,89.32
2022-12-01T06:27:48.990Z,86.66
2022-12-01T06:30:51.626Z,85.97
2022-12-01T06:33:54.232Z,85.89
2022-12-01T06:36:56.892Z,84.99
2022-12-01T06:39:59.654Z,88.79
2022-12-01T06:43:05.641Z,84.59
2022-12-01T06:46:08.455Z,84.64
2022-12-01T06:49:12.396Z,84.03
2022-12-01T06:52:14.940Z,85.05
2022-12-01T06:55:17.653Z,84.75
2022-12-01T06:58:20.478Z,84.08
2022-12-01T07:01:23.644Z,84.25
2022-12-01T07:04:26.338Z,83.66
2022-12-01T07:07:28.832Z,83.62
2022-12-01T07:10:31.496Z,83.13
2022-12-01T07:13:34.705Z,83.32
2022-12-01T07:16:37.253Z,83.44
2022-12-01T07:19:40.708Z,82.33
2022-12-01T07:22:43.334Z,82.21
2022-12-01T07:25:45.911Z,82.13
2022-12-01T07:28:49.034Z,81.78
2022-12-01T07:31:51.651Z,81.41
2022-12-01T07:34:54.133Z,81.19
2022-12-01T07:37:56.920Z,80.50
2022-12-01T07:41:06.990Z,80.31
2022-12-01T07:44:10.828Z,80.52
2022-12-01T07:47:14.747Z,80.27
2022-12-01T07:50:17.351Z,80.51
2022-12-01T07:53:19.912Z,80.40
2022-12-01T07:56:23.266Z,80.44
2022-12-01T07:59:25.743Z,80.18
2022-12-01T08:02:28.844Z,80.05
2022-12-01T08:05:31.341Z,79.72
2022-12-01T08:08:35.394Z,80.19
2022-12-01T08:11:38.059Z,81.26
2022-12-01T08:14:40.531Z,80.69
2022-12-01T08:17:43.033Z,80.30
2022-12-01T08:20:45.586Z,80.58
2022-12-01T08:23:49.086Z,80.14
2022-12-01T08:26:51.680Z,79.49
2022-12-01T08:29:54.130Z,79.06
2022-12-01T08:32:57.807Z,77.77
2022-12-01T08:36:02.903Z,76.99
2022-12-01T08:39:08.106Z,76.90
2022-12-01T08:42:10.572Z,76.91
2022-12-01T08:45:13.638Z,77.06
2022-12-01T08:48:16.087Z,76.56
2022-12-01T08:51:19.177Z,76.69
2022-12-01T08:54:21.930Z,76.09
2022-12-01T08:57:24.467Z,75.73
2022-12-01T09:00:28.856Z,75.25
2022-12-01T09:03:31.981Z,75.10
2022-12-01T09:06:43.671Z,74.85
2022-12-01T09:09:46.485Z,75.02
2022-12-01T09:12:48.979Z,74.60
2022-12-01T09:15:59.606Z,73.69
2022-12-01T09:19:02.828Z,73.38
2022-12-01T09:22:05.597Z,73.40
2022-12-01T09:25:14.662Z,73.56
2022-12-01T09:28:18.172Z,73.87
2022-12-01T09:31:23.447Z,73.83
2022-12-01T09:34:27.338Z,73.36
2022-12-01T09:37:29.785Z,73.03
2022-12-01T09:40:36.771Z,72.82
2022-12-01T09:43:52.578Z,71.77
2022-12-01T09:47:05.534Z,72.13
2022-12-01T09:50:18.898Z,71.49
2022-12-01T09:53:24.830Z,71.82
2022-12-01T09:56:31.114Z,71.06
2022-12-01T09:59:41.734Z,70.35
2022-12-01T10:02:52.884Z,70.02
2022-12-01T10:09:41.120Z,68.98
2022-12-01T10:12:46.941Z,68.52
2022-12-01T10:16:26.522Z,68.58
2022-12-01T10:19:45.135Z,67.13
2022-12-01T10:23:15.166Z,65.07
2022-12-01T10:26:28.892Z,65.07
2022-12-01T10:29:31.620Z,66.19
2022-12-01T10:32:58.341Z,65.78
2022-12-01T10:36:01.288Z,66.08
2022-12-01T10:39:21.348Z,65.53
2022-12-01T10:42:32.033Z,65.23
2022-12-01T10:45:40.203Z,64.54
2022-12-01T10:48:54.968Z,64.66
2022-12-01T10:51:58.692Z,64.36
2022-12-01T10:55:02.236Z,64.08
2022-12-01T10:58:16.514Z,64.34
2022-12-01T11:01:27.629Z,64.49
2022-12-01T11:04:46.532Z,64.59
2022-12-01T11:07:50.126Z,64.73
2022-12-01T11:10:52.825Z,64.49
2022-12-01T11:13:57.859Z,64.51
2022-12-01T11:17:25.741Z,64.07
2022-12-01T11:20:33.057Z,63.81
2022-12-01T11:23:37.968Z,63.57
2022-12-01T11:26:40.938Z,64.13
2022-12-01T11:29:45.964Z,63.49
2022-12-01T11:32:55.288Z,63.33
2022-12-01T11:35:58.160Z,63.08
2022-12-01T11:39:01.855Z,63.66
2022-12-01T11:42:24.649Z,62.56
2022-12-01T11:45:40.338Z,62.91
2022-12-01T11:48:58.341Z,62.92
2022-12-01T11:52:17.694Z,61.14
2022-12-01T11:55:26.243Z,66.29
2022-12-01T11:58:29.113Z,66.88
2022-12-01T12:01:53.709Z,57.37
2022-12-01T12:05:05.291Z,58.21
2022-12-01T12:08:20.249Z,60.25
2022-12-01T12:11:50.040Z,59.48
2022-12-01T12:15:02.607Z,60.52
2022-12-01T12:18:35.670Z,66.86
2022-12-01T12:22:07.280Z,63.23
2022-12-01T12:25:22.935Z,62.95
2022-12-01T12:28:35.476Z,57.66
2022-12-01T12:31:41.096Z,63.20
2022-12-01T12:34:52.900Z,62.15
2022-12-01T12:38:33.248Z,63.37
2022-12-01T12:41:43.150Z,66.86
2022-12-01T12:45:13.533Z,68.64
2022-12-01T12:49:18.572Z,63.81
2022-12-01T12:52:19.590Z,59.31
2022-12-01T12:55:45.438Z,64.85
2022-12-01T12:59:24.594Z,64.43
2022-12-01T13:02:53.187Z,65.61
2022-12-01T13:06:24.900Z,61.35
2022-12-01T13:09:39.424Z,62.30
2022-12-01T13:12:49.495Z,64.95
2022-12-01T13:15:55.412Z,63.47
2022-12-01T13:19:13.425Z,64.72
2022-12-01T13:22:19.668Z,65.48
2022-12-01T13:25:28.306Z,65.67
2022-12-01T13:28:44.153Z,65.66
2022-12-01T13:31:50.899Z,66.04
2022-12-01T13:34:53.876Z,66.10
2022-12-01T13:38:13.136Z,65.89
2022-12-01T13:41:18.680Z,67.02
2022-12-01T13:44:39.835Z,66.60
2022-12-01T13:47:55.531Z,68.26
2022-12-01T13:51:01.570Z,69.33
2022-12-01T13:54:25.901Z,69.42
2022-12-01T13:57:31.868Z,69.24
2022-12-01T14:00:35.038Z,69.57
2022-12-01T14:03:40.782Z,69.74
2022-12-01T14:06:53.205Z,69.39
2022-12-01T14:10:09.634Z,69.51
2022-12-01T14:13:19.499Z,69.84
2022-12-01T14:16:22.659Z,69.91
2022-12-01T14:19:52.278Z,70.21
2022-12-01T14:23:10.807Z,69.78
2022-12-01T14:26:17.642Z,70.48
2022-12-01T14:29:39.285Z,71.04
2022-12-01T14:32:41.963Z,71.41
2022-12-01T14:35:45.460Z,71.50
2022-12-01T14:38:50.007Z,71.90
2022-12-01T14:41:56.866Z,72.53
2022-12-01T14:45:03.371Z,72.93
2022-12-01T14:48:12.590Z,73.69
2022-12-01T14:51:29.961Z,74.38
2022-12-01T14:54:54.095Z,74.66
2022-12-01T14:58:05.996Z,75.29
2022-12-01T15:01:13.983Z,75.41
2022-12-01T15:04:16.614Z,75.69
2022-12-01T15:07:23.145Z,75.73
2022-12-01T15:10:29.913Z,76.15
2022-12-01T15:13:50.682Z,75.18
2022-12-01T15:16:53.383Z,73.95
2022-12-01T15:19:55.831Z,73.43
2022-12-01T15:22:59.003Z,73.98
2022-12-01T15:26:02.153Z,73.88
2022-12-01T15:29:17.835Z,73.40
2022-12-01T15:32:22.675Z,74.03
2022-12-01T15:35:25.529Z,74.47
2022-12-01T15:38:34.440Z,74.49
2022-12-01T15:41:40.462Z,74.87
2022-12-01T15:44:42.849Z,74.94
2022-12-01T15:47:50.361Z,74.18
2022-12-01T15:51:04.270Z,74.25
2022-12-01T15:54:12.114Z,73.59
2022-12-01T15:57:20.175Z,74.28
2022-12-01T16:00:23.168Z,74.74
2022-12-01T16:03:26.247Z,74.67
2022-12-01T16:06:32.433Z,74.08
2022-12-01T16:09:43.377Z,75.21
2022-12-01T16:12:45.930Z,75.19
2022-12-01T16:15:48.487Z,75.86
2022-12-01T16:18:59.764Z,75.62
2022-12-01T16:22:11.668Z,75.13
2022-12-01T16:25:27.761Z,75.90
2022-12-01T16:28:36.018Z,75.76
2022-12-01T16:31:58.700Z,75.94
2022-12-01T16:35:04.335Z,76.44
2022-12-01T16:38:16.415Z,76.46
2022-12-01T16:41:37.921Z,75.90
2022-12-01T16:44:42.755Z,75.95
2022-12-01T16:47:47.254Z,76.48
2022-12-01T16:50:51.857Z,76.15
2022-12-01T16:53:56.330Z,74.96
2022-12-01T16:56:59.146Z,74.02
2022-12-01T17:00:01.817Z,74.01
2022-12-01T17:03:05.204Z,73.96
2022-12-01T17:06:08.014Z,73.99
2022-12-01T17:09:10.732Z,73.60
2022-12-01T17:12:13.442Z,74.49
2022-12-01T17:15:17.146Z,75.07
2022-12-01T17:18:21.715Z,76.25
2022-12-01T17:21:24.311Z,76.60
2022-12-01T17:24:26.769Z,77.17
2022-12-01T17:27:30.025Z,77.03
2022-12-01T17:30:32.571Z,75.79
2022-12-01T17:33:36.508Z,75.26
2022-12-01T17:36:39.276Z,74.25
2022-12-01T17:39:43.317Z,74.52
2022-12-01T17:42:50.416Z,74.79
2022-12-01T17:45:53.349Z,75.34
2022-12-01T17:48:56.232Z,75.27
2022-12-01T17:51:58.791Z,75.44
2022-12-01T17:55:01.709Z,76.63
2022-12-01T17:58:04.388Z,77.86
2022-12-01T18:01:13.748Z,77.98
2022-12-01T18:04:17.231Z,78.58
2022-12-01T18:07:20.331Z,78.66
2022-12-01T18:10:22.923Z,79.17
2022-12-01T18:13:25.327Z,78.64
2022-12-01T18:16:30.935Z,78.78
2022-12-01T18:19:33.815Z,78.86
2022-12-01T18:22:36.672Z,79.31
2022-12-01T18:25:40.593Z,79.13
2022-12-01T18:28:43.848Z,79.59
2022-12-01T18:31:47.324Z,80.11
2022-12-01T18:34:50.681Z,79.49
2022-12-01T18:37:54.077Z,80.06
2022-12-01T18:41:01.356Z,80.62
2022-12-01T18:44:04.569Z,81.43
2022-12-01T18:47:07.543Z,81.24
2022-12-01T18:50:11.946Z,80.16
2022-12-01T18:53:15.532Z,79.76
2022-12-01T18:56:19.820Z,78.74
2022-12-01T18:59:22.407Z,79.67
2022-12-01T19:02:26.537Z,78.81
2022-12-01T19:05:30.859Z,78.76
2022-12-01T19:08:34.388Z,78.84
2022-12-01T19:11:38.281Z,78.79
2022-12-01T19:14:41.322Z,78.92
2022-12-01T19:17:44.122Z,78.69
2022-12-01T19:20:46.815Z,78.35
2022-12-01T19:23:49.923Z,78.63
2022-12-01T19:26:52.629Z,78.36
2022-12-01T19:29:55.441Z,78.59
2022-12-01T19:32:58.333Z,77.69
2022-12-01T19:36:09.387Z,77.78
2022-12-01T19:39:12.103Z,77.68
2022-12-01T19:42:14.861Z,77.91
2022-12-01T19:45:17.737Z,78.14
2022-12-01T19:48:20.295Z,78.25
2022-12-01T19:51:26.801Z,78.73
2022-12-01T19:54:31.930Z,78.43
2022-12-01T19:57:34.944Z,78.56
2022-12-01T20:00:38.026Z,78.57
2022-12-01T20:03:41.978Z,80.05
2022-12-01T20:06:44.830Z,80.14
2022-12-01T20:09:51.950Z,80.78
2022-12-01T20:12:56.154Z,80.35
2022-12-01T20:16:03.232Z,80.25
2022-12-01T20:19:06.904Z,80.56
2022-12-01T20:22:09.825Z,80.79
2022-12-01T20:25:12.644Z,80.77
2022-12-01T20:28:15.307Z,80.06
2022-12-01T20:31:21.494Z,79.34
2022-12-01T20:34:28.157Z,78.84
2022-12-01T20:37:31.262Z,78.39
2022-12-01T20:40:34.165Z,79.08
2022-12-01T20:43:37.338Z,79.16
2022-12-01T20:46:45.870Z,80.04
2022-12-01T20:49:49.009Z,79.52
2022-12-01T20:52:51.780Z,79.61
2022-12-01T20:55:55.672Z,79.17
2022-12-01T20:58:58.887Z,79.19
2022-12-01T21:02:01.696Z,79.02
2022-12-01T21:05:04.912Z,79.04
2022-12-01T21:08:10.450Z,80.08
2022-12-01T21:11:45.080Z,80.31
2022-12-01T21:15:01.707Z,80.78
2022-12-01T21:18:12.455Z,81.30
2022-12-01T21:21:23.624Z,81.72
2022-12-01T21:24:33.508Z,82.11
2022-12-01T21:27:37.461Z,82.86
2022-12-01T21:30:41.178Z,82.50
2022-12-01T21:33:43.828Z,82.86
2022-12-01T21:36:48.097Z,83.16
2022-12-01T21:39:52.656Z,83.05
2022-12-01T21:43:00.177Z,83.39
2022-12-01T21:46:13.747Z,83.33
2022-12-01T21:49:20.411Z,83.47
2022-12-01T21:52:34.645Z,83.86
2022-12-01T21:55:39.004Z,83.87
2022-12-01T21:58:41.608Z,82.92
2022-12-01T22:01:44.092Z,83.76
2022-12-01T22:04:46.891Z,83.64
2022-12-01T22:07:49.530Z,83.77
2022-12-01T22:11:02.754Z,83.90
2022-12-01T22:14:17.187Z,83.47
2022-12-01T22:17:21.180Z,83.62
2022-12-01T22:20:23.689Z,83.16
2022-12-01T22:23:33.945Z,82.73
2022-12-01T22:26:39.661Z,83.07
2022-12-01T22:29:44.871Z,82.84
2022-12-01T22:33:03.689Z,83.28
2022-12-01T22:36:21.801Z,82.78
2022-12-01T22:39:34.139Z,83.57
2022-12-01T22:42:37.487Z,83.05
2022-12-01T22:45:39.904Z,83.13
2022-12-01T22:48:45.860Z,83.54
2022-12-01T22:51:56.244Z,84.13
2022-12-01T22:54:58.820Z,84.12
2022-12-01T22:58:09.823Z,84.25
2022-12-01T23:01:24.959Z,84.14
2022-12-01T23:04:40.223Z,84.07
2022-12-01T23:07:43.253Z,84.75
2022-12-01T23:10:46.151Z,83.96
2022-12-01T23:13:48.580Z,84.68
2022-12-01T23:17:06.647Z,85.09
2022-12-01T23:20:34.489Z,83.48
2022-12-01T23:23:37.674Z,82.42
2022-12-01T23:26:40.133Z,82.03
2022-12-01T23:29:42.604Z,81.83
2022-12-01T23:32:48.003Z,82.11
2022-12-01T23:36:00.180Z,81.93
2022-12-01T23:39:06.984Z,81.54
2022-12-01T23:42:11.691Z,81.15
2022-12-01T23:45:21.631Z,81.31
2022-12-01T23:48:31.979Z,81.28
2022-12-01T23:51:40.187Z,80.99
2022-12-01T23:54:42.793Z,80.98
2022-12-01T23:57:45.255Z,81.01
